sensor_id;sensor_type;location;lat;lon;timestamp;pressure;altitude;pressure_sealevel;temperature;humidity
45275;BME280;31019;43.780;25.948;2024-01-15T00:02:10;100550.84;;;-0.65;100.00
45275;BME280;31019;43.780;25.948;2024-01-15T00:04:37;100545.75;;;-0.77;100.00
45275;BME280;31019;43.780;25.948;2024-01-15T00:07:04;100542.31;;;-0.58;100.00
45275;BME280;31019;43.780;25.948;2024-01-15T00:09:31;100543.81;;;-0.16;100.00
45275;BME280;31019;43.780;25.948;2024-01-15T00:12:00;100542.59;;;-0.41;100.00
45275;BME280;31019;43.780;25.948;2024-01-15T00:14:27;100544.13;;;-0.87;100.00
45275;BME280;31019;43.780;25.948;2024-01-15T00:16:54;100538.31;;;-1.20;100.00
45275;BME280;31019;43.780;25.948;2024-01-15T00:19:21;100548.81;;;-1.41;100.00
45275;BME280;31019;43.780;25.948;2024-01-15T00:21:49;100556.59;;;-1.81;100.00
45275;BME280;31019;43.780;25.948;2024-01-15T00:24:16;100551.50;;;-2.14;100.00
45275;BME280;31019;43.780;25.948;2024-01-15T00:26:43;100550.03;;;-2.27;100.00
45275;BME280;31019;43.780;25.948;2024-01-15T00:29:11;100554.34;;;-2.38;100.00
45275;BME280;31019;43.780;25.948;2024-01-15T00:31:38;100559.78;;;-2.41;100.00
45275;BME280;31019;43.780;25.948;2024-01-15T00:34:05;100553.50;;;-1.96;100.00
45275;BME280;31019;43.780;25.948;2024-01-15T00:36:32;100556.75;;;-2.46;100.00
45275;BME280;31019;43.780;25.948;2024-01-15T00:38:59;100546.47;;;-2.47;100.00
45275;BME280;31019;43.780;25.948;2024-01-15T00:41:26;100541.81;;;-2.65;100.00
45275;BME280;31019;43.780;25.948;2024-01-15T00:43:53;100535.88;;;-2.88;100.00
45275;BME280;31019;43.780;25.948;2024-01-15T00:46:21;100537.50;;;-2.55;100.00
45275;BME280;31019;43.780;25.948;2024-01-15T00:48:48;100537.50;;;-2.55;100.00
45275;BME280;31019;43.780;25.948;2024-01-15T00:51:15;100533.31;;;-2.67;100.00
45275;BME280;31019;43.780;25.948;2024-01-15T00:53:42;100533.91;;;-3.07;100.00
45275;BME280;31019;43.780;25.948;2024-01-15T00:56:09;100534.88;;;-2.76;100.00
45275;BME280;31019;43.780;25.948;2024-01-15T00:58:39;100540.72;;;-2.51;100.00
45275;BME280;31019;43.780;25.948;2024-01-15T01:01:06;100526.31;;;-2.87;100.00
45275;BME280;31019;43.780;25.948;2024-01-15T01:03:34;100530.78;;;-2.78;100.00
45275;BME280;31019;43.780;25.948;2024-01-15T01:06:01;100527.69;;;-2.51;100.00
45275;BME280;31019;43.780;25.948;2024-01-15T01:08:28;100525.47;;;-2.88;100.00
45275;BME280;31019;43.780;25.948;2024-01-15T01:10:55;100526.00;;;-2.73;100.00
45275;BME280;31019;43.780;25.948;2024-01-15T01:13:22;100529.09;;;-2.47;100.00
45275;BME280;31019;43.780;25.948;2024-01-15T01:15:49;100520.88;;;-2.63;100.00
45275;BME280;31019;43.780;25.948;2024-01-15T01:18:16;100514.56;;;-2.82;100.00
45275;BME280;31019;43.780;25.948;2024-01-15T01:20:44;100522.34;;;-2.49;100.00
45275;BME280;31019;43.780;25.948;2024-01-15T01:23:11;100507.41;;;-2.57;100.00
45275;BME280;31019;43.780;25.948;2024-01-15T01:25:38;100506.19;;;-2.53;100.00
45275;BME280;31019;43.780;25.948;2024-01-15T01:28:05;100505.28;;;-2.63;100.00
45275;BME280;31019;43.780;25.948;2024-01-15T01:30:32;100501.69;;;-2.72;100.00
45275;BME280;31019;43.780;25.948;2024-01-15T01:32:59;100501.63;;;-3.25;100.00
45275;BME280;31019;43.780;25.948;2024-01-15T01:35:26;100500.38;;;-3.10;100.00
45275;BME280;31019;43.780;25.948;2024-01-15T01:37:54;100495.63;;;-2.93;100.00
45275;BME280;31019;43.780;25.948;2024-01-15T01:40:21;100497.97;;;-2.90;100.00
45275;BME280;31019;43.780;25.948;2024-01-15T01:42:48;100495.22;;;-3.21;100.00
45275;BME280;31019;43.780;25.948;2024-01-15T01:45:15;100497.03;;;-3.01;100.00
45275;BME280;31019;43.780;25.948;2024-01-15T01:47:42;100496.06;;;-2.88;100.00
45275;BME280;31019;43.780;25.948;2024-01-15T01:50:09;100492.44;;;-2.97;100.00
45275;BME280;31019;43.780;25.948;2024-01-15T01:52:36;100497.19;;;-3.02;100.00
45275;BME280;31019;43.780;25.948;2024-01-15T01:55:06;100494.88;;;-2.84;100.00
45275;BME280;31019;43.780;25.948;2024-01-15T01:57:34;100496.34;;;-2.70;100.00
45275;BME280;31019;43.780;25.948;2024-01-15T02:00:02;100502.00;;;-2.65;100.00
45275;BME280;31019;43.780;25.948;2024-01-15T02:02:30;100499.38;;;-2.86;100.00
45275;BME280;31019;43.780;25.948;2024-01-15T02:04:57;100490.06;;;-3.00;100.00
45275;BME280;31019;43.780;25.948;2024-01-15T02:07:24;100494.66;;;-2.92;100.00
45275;BME280;31019;43.780;25.948;2024-01-15T02:09:52;100497.09;;;-2.80;100.00
45275;BME280;31019;43.780;25.948;2024-01-15T02:12:20;100489.84;;;-2.13;100.00
45275;BME280;31019;43.780;25.948;2024-01-15T02:14:47;100466.69;;;-1.86;100.00
45275;BME280;31019;43.780;25.948;2024-01-15T02:17:14;100476.34;;;-2.28;100.00
45275;BME280;31019;43.780;25.948;2024-01-15T02:19:40;100469.31;;;-2.58;100.00
45275;BME280;31019;43.780;25.948;2024-01-15T02:22:09;100464.75;;;-3.19;100.00
45275;BME280;31019;43.780;25.948;2024-01-15T02:24:37;100469.06;;;-3.40;100.00
45275;BME280;31019;43.780;25.948;2024-01-15T02:27:04;100458.78;;;-3.42;100.00
45275;BME280;31019;43.780;25.948;2024-01-15T02:29:31;100462.22;;;-3.09;100.00
45275;BME280;31019;43.780;25.948;2024-01-15T02:31:58;100450.44;;;-3.13;100.00
45275;BME280;31019;43.780;25.948;2024-01-15T02:34:25;100446.25;;;-2.93;100.00
45275;BME280;31019;43.780;25.948;2024-01-15T02:36:52;100444.81;;;-2.97;100.00
45275;BME280;31019;43.780;25.948;2024-01-15T02:39:18;100440.91;;;-3.24;100.00
45275;BME280;31019;43.780;25.948;2024-01-15T02:41:47;100440.56;;;-3.19;100.00
45275;BME280;31019;43.780;25.948;2024-01-15T02:44:13;100446.03;;;-3.02;100.00
45275;BME280;31019;43.780;25.948;2024-01-15T02:46:40;100435.69;;;-3.13;100.00
45275;BME280;31019;43.780;25.948;2024-01-15T02:49:07;100432.38;;;-3.15;100.00
45275;BME280;31019;43.780;25.948;2024-01-15T02:51:34;100431.13;;;-3.00;100.00
45275;BME280;31019;43.780;25.948;2024-01-15T02:54:01;100424.59;;;-3.58;100.00
45275;BME280;31019;43.780;25.948;2024-01-15T02:56:28;100427.63;;;-3.42;100.00
45275;BME280;31019;43.780;25.948;2024-01-15T02:58:56;100429.75;;;-3.36;100.00
45275;BME280;31019;43.780;25.948;2024-01-15T03:01:23;100432.53;;;-2.95;100.00
45275;BME280;31019;43.780;25.948;2024-01-15T03:03:50;100421.69;;;-3.01;100.00
45275;BME280;31019;43.780;25.948;2024-01-15T03:06:16;100419.22;;;-3.02;100.00
45275;BME280;31019;43.780;25.948;2024-01-15T03:08:42;100423.41;;;-2.90;100.00
45275;BME280;31019;43.780;25.948;2024-01-15T03:11:09;100414.91;;;-2.71;100.00
45275;BME280;31019;43.780;25.948;2024-01-15T03:13:36;100416.94;;;-2.74;100.00
45275;BME280;31019;43.780;25.948;2024-01-15T03:16:05;100409.31;;;-2.66;100.00
45275;BME280;31019;43.780;25.948;2024-01-15T03:18:32;100413.88;;;-3.22;100.00
45275;BME280;31019;43.780;25.948;2024-01-15T03:20:59;100409.34;;;-3.08;100.00
45275;BME280;31019;43.780;25.948;2024-01-15T03:23:27;100404.00;;;-3.71;100.00
45275;BME280;31019;43.780;25.948;2024-01-15T03:25:54;100409.81;;;-3.47;100.00
45275;BME280;31019;43.780;25.948;2024-01-15T03:28:21;100407.06;;;-3.02;100.00
45275;BME280;31019;43.780;25.948;2024-01-15T03:30:48;100401.69;;;-3.21;100.00
45275;BME280;31019;43.780;25.948;2024-01-15T03:33:16;100403.06;;;-3.38;100.00
45275;BME280;31019;43.780;25.948;2024-01-15T03:35:43;100404.16;;;-3.52;100.00
45275;BME280;31019;43.780;25.948;2024-01-15T03:38:10;100403.09;;;-3.93;100.00
45275;BME280;31019;43.780;25.948;2024-01-15T03:40:36;100405.03;;;-3.62;100.00
45275;BME280;31019;43.780;25.948;2024-01-15T03:43:03;100404.53;;;-3.24;100.00
45275;BME280;31019;43.780;25.948;2024-01-15T03:45:30;100401.19;;;-3.15;100.00
45275;BME280;31019;43.780;25.948;2024-01-15T03:47:57;100402.94;;;-3.36;100.00
45275;BME280;31019;43.780;25.948;2024-01-15T03:50:25;100397.13;;;-2.96;100.00
45275;BME280;31019;43.780;25.948;2024-01-15T03:52:52;100400.50;;;-3.49;100.00
45275;BME280;31019;43.780;25.948;2024-01-15T03:55:19;100395.50;;;-3.30;100.00
45275;BME280;31019;43.780;25.948;2024-01-15T03:57:46;100387.28;;;-3.46;100.00
45275;BME280;31019;43.780;25.948;2024-01-15T04:00:14;100383.25;;;-3.18;100.00
45275;BME280;31019;43.780;25.948;2024-01-15T04:02:43;100385.78;;;-3.28;100.00
45275;BME280;31019;43.780;25.948;2024-01-15T04:05:11;100388.16;;;-3.57;100.00
45275;BME280;31019;43.780;25.948;2024-01-15T04:07:41;100378.78;;;-3.92;100.00
45275;BME280;31019;43.780;25.948;2024-01-15T04:10:09;100387.47;;;-3.70;100.00
45275;BME280;31019;43.780;25.948;2024-01-15T04:12:36;100391.66;;;-3.90;100.00
45275;BME280;31019;43.780;25.948;2024-01-15T04:15:03;100387.59;;;-3.39;100.00
45275;BME280;31019;43.780;25.948;2024-01-15T04:17:30;100385.59;;;-3.36;100.00
45275;BME280;31019;43.780;25.948;2024-01-15T04:19:57;100387.28;;;-3.46;100.00
45275;BME280;31019;43.780;25.948;2024-01-15T04:22:25;100386.03;;;-3.63;100.00
45275;BME280;31019;43.780;25.948;2024-01-15T04:24:53;100390.44;;;-2.68;100.00
45275;BME280;31019;43.780;25.948;2024-01-15T04:27:20;100399.84;;;-3.30;100.00
45275;BME280;31019;43.780;25.948;2024-01-15T04:29:47;100402.94;;;-3.04;100.00
45275;BME280;31019;43.780;25.948;2024-01-15T04:32:13;100395.03;;;-1.70;100.00
45275;BME280;31019;43.780;25.948;2024-01-15T04:34:40;100394.56;;;-2.04;100.00
45275;BME280;31019;43.780;25.948;2024-01-15T04:37:07;100392.13;;;-1.96;100.00
45275;BME280;31019;43.780;25.948;2024-01-15T04:39:34;100396.50;;;-2.27;100.00
45275;BME280;31019;43.780;25.948;2024-01-15T04:42:03;100396.25;;;-2.24;100.00
45275;BME280;31019;43.780;25.948;2024-01-15T04:44:30;100395.72;;;-2.49;100.00
45275;BME280;31019;43.780;25.948;2024-01-15T04:46:57;100395.41;;;-2.35;100.00
45275;BME280;31019;43.780;25.948;2024-01-15T04:49:24;100401.50;;;-2.15;100.00
45275;BME280;31019;43.780;25.948;2024-01-15T04:51:52;100390.63;;;-1.79;100.00
45275;BME280;31019;43.780;25.948;2024-01-15T04:54:19;100390.44;;;-3.10;100.00
45275;BME280;31019;43.780;25.948;2024-01-15T04:56:46;100387.16;;;-3.44;100.00
45275;BME280;31019;43.780;25.948;2024-01-15T04:59:14;100393.69;;;-3.50;100.00
45275;BME280;31019;43.780;25.948;2024-01-15T05:01:43;100380.66;;;-3.94;100.00
45275;BME280;31019;43.780;25.948;2024-01-15T05:04:10;100386.72;;;-4.04;100.00
45275;BME280;31019;43.780;25.948;2024-01-15T05:06:36;100396.16;;;-2.13;100.00
45275;BME280;31019;43.780;25.948;2024-01-15T05:09:03;100390.09;;;-3.38;100.00
45275;BME280;31019;43.780;25.948;2024-01-15T05:11:30;100382.38;;;-3.28;100.00
45275;BME280;31019;43.780;25.948;2024-01-15T05:13:57;100390.56;;;-3.33;100.00
45275;BME280;31019;43.780;25.948;2024-01-15T05:16:25;100391.19;;;-3.95;100.00
45275;BME280;31019;43.780;25.948;2024-01-15T05:18:52;100390.25;;;-4.05;100.00
45275;BME280;31019;43.780;25.948;2024-01-15T05:21:19;100395.59;;;-3.63;100.00
45275;BME280;31019;43.780;25.948;2024-01-15T05:23:46;100389.91;;;-3.57;100.00
45275;BME280;31019;43.780;25.948;2024-01-15T05:26:13;100390.00;;;-3.48;100.00
45275;BME280;31019;43.780;25.948;2024-01-15T05:28:41;100386.47;;;-3.90;100.00
45275;BME280;31019;43.780;25.948;2024-01-15T05:31:10;100393.09;;;-4.20;100.00
45275;BME280;31019;43.780;25.948;2024-01-15T05:33:38;100388.97;;;-4.56;100.00
45275;BME280;31019;43.780;25.948;2024-01-15T05:36:06;100378.34;;;-4.53;100.00
45275;BME280;31019;43.780;25.948;2024-01-15T05:38:33;100372.56;;;-4.34;100.00
45275;BME280;31019;43.780;25.948;2024-01-15T05:41:00;100363.72;;;-4.43;100.00
45275;BME280;31019;43.780;25.948;2024-01-15T05:43:26;100364.31;;;-4.73;100.00
45275;BME280;31019;43.780;25.948;2024-01-15T05:45:53;100362.88;;;-4.88;100.00
45275;BME280;31019;43.780;25.948;2024-01-15T05:48:20;100357.13;;;-4.80;100.00
45275;BME280;31019;43.780;25.948;2024-01-15T05:50:48;100358.78;;;-4.57;100.00
45275;BME280;31019;43.780;25.948;2024-01-15T05:53:15;100351.81;;;-4.45;100.00
45275;BME280;31019;43.780;25.948;2024-01-15T05:55:42;100351.84;;;-4.56;100.00
45275;BME280;31019;43.780;25.948;2024-01-15T05:58:12;100348.78;;;-4.62;100.00
45275;BME280;31019;43.780;25.948;2024-01-15T06:00:42;100350.41;;;-4.61;100.00
45275;BME280;31019;43.780;25.948;2024-01-15T06:03:11;100349.22;;;-4.45;100.00
45275;BME280;31019;43.780;25.948;2024-01-15T06:05:38;100340.88;;;-4.60;100.00
45275;BME280;31019;43.780;25.948;2024-01-15T06:08:06;100351.00;;;-4.79;100.00
45275;BME280;31019;43.780;25.948;2024-01-15T06:10:33;100351.59;;;-4.65;100.00
45275;BME280;31019;43.780;25.948;2024-01-15T06:13:00;100346.66;;;-4.23;100.00
45275;BME280;31019;43.780;25.948;2024-01-15T06:15:27;100348.38;;;-4.12;100.00
45275;BME280;31019;43.780;25.948;2024-01-15T06:17:54;100350.06;;;-3.67;100.00
45275;BME280;31019;43.780;25.948;2024-01-15T06:20:20;100344.38;;;-3.29;100.00
45275;BME280;31019;43.780;25.948;2024-01-15T06:22:47;100337.19;;;-3.37;100.00
45275;BME280;31019;43.780;25.948;2024-01-15T06:25:18;100347.03;;;-2.98;100.00
45275;BME280;31019;43.780;25.948;2024-01-15T06:27:45;100349.97;;;-2.82;100.00
45275;BME280;31019;43.780;25.948;2024-01-15T06:30:12;100354.03;;;-2.38;100.00
45275;BME280;31019;43.780;25.948;2024-01-15T06:32:39;100353.25;;;-2.59;100.00
45275;BME280;31019;43.780;25.948;2024-01-15T06:35:07;100350.13;;;-2.13;100.00
45275;BME280;31019;43.780;25.948;2024-01-15T06:37:36;100357.09;;;-1.63;100.00
45275;BME280;31019;43.780;25.948;2024-01-15T06:40:03;100351.59;;;-1.11;100.00
45275;BME280;31019;43.780;25.948;2024-01-15T06:42:32;100360.09;;;-1.19;100.00
45275;BME280;31019;43.780;25.948;2024-01-15T06:44:59;100359.75;;;-0.30;100.00
45275;BME280;31019;43.780;25.948;2024-01-15T06:47:26;100351.63;;;-1.60;100.00
45275;BME280;31019;43.780;25.948;2024-01-15T06:49:53;100355.56;;;-0.98;100.00
45275;BME280;31019;43.780;25.948;2024-01-15T06:52:20;100347.81;;;-0.70;100.00
45275;BME280;31019;43.780;25.948;2024-01-15T06:54:47;100354.88;;;-0.53;100.00
45275;BME280;31019;43.780;25.948;2024-01-15T06:57:14;100351.81;;;-0.11;100.00
45275;BME280;31019;43.780;25.948;2024-01-15T06:59:42;100345.97;;;-0.22;100.00
45275;BME280;31019;43.780;25.948;2024-01-15T07:02:09;100348.00;;;0.29;100.00
45275;BME280;31019;43.780;25.948;2024-01-15T07:04:36;100342.69;;;0.75;100.00
45275;BME280;31019;43.780;25.948;2024-01-15T07:07:03;100342.19;;;1.15;100.00
45275;BME280;31019;43.780;25.948;2024-01-15T07:09:30;100342.72;;;1.53;100.00
45275;BME280;31019;43.780;25.948;2024-01-15T07:11:57;100335.69;;;1.96;100.00
45275;BME280;31019;43.780;25.948;2024-01-15T07:14:25;100342.00;;;2.27;100.00
45275;BME280;31019;43.780;25.948;2024-01-15T07:16:53;100340.16;;;2.20;100.00
45275;BME280;31019;43.780;25.948;2024-01-15T07:19:20;100341.38;;;2.34;100.00
45275;BME280;31019;43.780;25.948;2024-01-15T07:21:47;100333.19;;;2.61;100.00
45275;BME280;31019;43.780;25.948;2024-01-15T07:24:13;100333.00;;;2.95;100.00
45275;BME280;31019;43.780;25.948;2024-01-15T07:26:40;100328.19;;;3.24;100.00
45275;BME280;31019;43.780;25.948;2024-01-15T07:29:07;100327.78;;;3.59;100.00
45275;BME280;31019;43.780;25.948;2024-01-15T07:31:34;100328.13;;;3.96;100.00
45275;BME280;31019;43.780;25.948;2024-01-15T07:34:02;100329.19;;;3.22;100.00
45275;BME280;31019;43.780;25.948;2024-01-15T07:36:29;100327.50;;;3.94;100.00
45275;BME280;31019;43.780;25.948;2024-01-15T07:38:57;100336.72;;;4.21;100.00
45275;BME280;31019;43.780;25.948;2024-01-15T07:41:24;100330.25;;;4.23;100.00
45275;BME280;31019;43.780;25.948;2024-01-15T07:43:50;100327.94;;;4.28;100.00
45275;BME280;31019;43.780;25.948;2024-01-15T07:46:17;100327.47;;;5.09;100.00
45275;BME280;31019;43.780;25.948;2024-01-15T07:48:44;100320.31;;;5.47;100.00
45275;BME280;31019;43.780;25.948;2024-01-15T07:51:12;100323.84;;;5.24;100.00
45275;BME280;31019;43.780;25.948;2024-01-15T07:53:39;100309.03;;;5.53;100.00
45275;BME280;31019;43.780;25.948;2024-01-15T07:56:06;100324.94;;;4.77;100.00
45275;BME280;31019;43.780;25.948;2024-01-15T07:58:33;100318.94;;;5.66;100.00
45275;BME280;31019;43.780;25.948;2024-01-15T08:01:00;100323.03;;;6.41;100.00
45275;BME280;31019;43.780;25.948;2024-01-15T08:03:27;100321.16;;;6.13;100.00
45275;BME280;31019;43.780;25.948;2024-01-15T08:05:54;100314.69;;;6.37;100.00
45275;BME280;31019;43.780;25.948;2024-01-15T08:08:24;100322.66;;;6.87;100.00
45275;BME280;31019;43.780;25.948;2024-01-15T08:10:51;100329.72;;;7.36;98.35
45275;BME280;31019;43.780;25.948;2024-01-15T08:13:18;100320.13;;;7.70;91.38
45275;BME280;31019;43.780;25.948;2024-01-15T08:15:45;100330.03;;;8.02;90.34
45275;BME280;31019;43.780;25.948;2024-01-15T08:18:12;100329.53;;;7.79;80.50
45275;BME280;31019;43.780;25.948;2024-01-15T08:20:42;100317.00;;;8.08;80.14
45275;BME280;31019;43.780;25.948;2024-01-15T08:23:09;100321.00;;;8.52;78.83
45275;BME280;31019;43.780;25.948;2024-01-15T08:25:37;100314.81;;;8.18;75.11
45275;BME280;31019;43.780;25.948;2024-01-15T08:28:04;100317.53;;;8.44;73.28
45275;BME280;31019;43.780;25.948;2024-01-15T08:30:31;100311.66;;;8.62;69.37
45275;BME280;31019;43.780;25.948;2024-01-15T08:32:58;100308.59;;;8.92;67.22
45275;BME280;31019;43.780;25.948;2024-01-15T08:35:25;100304.31;;;8.71;67.09
45275;BME280;31019;43.780;25.948;2024-01-15T08:37:52;100302.25;;;8.40;68.58
45275;BME280;31019;43.780;25.948;2024-01-15T08:40:20;100310.03;;;8.81;69.85
45275;BME280;31019;43.780;25.948;2024-01-15T08:42:48;100308.59;;;8.85;67.20
45275;BME280;31019;43.780;25.948;2024-01-15T08:45:17;100301.44;;;8.92;67.39
45275;BME280;31019;43.780;25.948;2024-01-15T08:47:44;100303.06;;;9.20;64.95
45275;BME280;31019;43.780;25.948;2024-01-15T08:50:12;100289.97;;;9.90;61.72
45275;BME280;31019;43.780;25.948;2024-01-15T08:52:41;100297.09;;;9.45;61.16
45275;BME280;31019;43.780;25.948;2024-01-15T08:55:08;100282.16;;;9.57;60.62
45275;BME280;31019;43.780;25.948;2024-01-15T08:57:38;100279.38;;;9.32;62.33
45275;BME280;31019;43.780;25.948;2024-01-15T09:00:07;100277.44;;;9.66;60.84
45275;BME280;31019;43.780;25.948;2024-01-15T09:02:36;100254.06;;;9.88;59.36
45275;BME280;31019;43.780;25.948;2024-01-15T09:05:04;100244.94;;;9.77;58.47
45275;BME280;31019;43.780;25.948;2024-01-15T09:07:31;100241.03;;;10.18;56.24
45275;BME280;31019;43.780;25.948;2024-01-15T09:09:58;100227.81;;;10.11;54.98
45275;BME280;31019;43.780;25.948;2024-01-15T09:12:25;100226.03;;;10.37;54.71
45275;BME280;31019;43.780;25.948;2024-01-15T09:14:52;100227.19;;;10.41;53.07
45275;BME280;31019;43.780;25.948;2024-01-15T09:17:20;100228.34;;;10.95;51.69
45275;BME280;31019;43.780;25.948;2024-01-15T09:19:48;100214.78;;;10.85;51.03
45275;BME280;31019;43.780;25.948;2024-01-15T09:22:15;100206.19;;;10.83;50.72
45275;BME280;31019;43.780;25.948;2024-01-15T09:24:43;100201.59;;;10.28;51.52
45275;BME280;31019;43.780;25.948;2024-01-15T09:27:10;100188.53;;;9.95;51.89
45275;BME280;31019;43.780;25.948;2024-01-15T09:29:37;100195.00;;;10.05;53.89
45275;BME280;31019;43.780;25.948;2024-01-15T09:32:06;100184.03;;;9.95;54.10
45275;BME280;31019;43.780;25.948;2024-01-15T09:34:35;100177.91;;;9.63;54.44
45275;BME280;31019;43.780;25.948;2024-01-15T09:37:02;100182.38;;;9.24;59.44
45275;BME280;31019;43.780;25.948;2024-01-15T09:39:29;100172.47;;;9.83;54.33
45275;BME280;31019;43.780;25.948;2024-01-15T09:41:57;100164.19;;;9.73;53.14
45275;BME280;31019;43.780;25.948;2024-01-15T09:44:25;100157.00;;;9.48;62.98
45275;BME280;31019;43.780;25.948;2024-01-15T09:46:53;100161.38;;;9.99;54.36
45275;BME280;31019;43.780;25.948;2024-01-15T09:49:21;100164.00;;;9.74;55.04
45275;BME280;31019;43.780;25.948;2024-01-15T09:51:50;100149.31;;;8.82;57.01
45275;BME280;31019;43.780;25.948;2024-01-15T09:54:17;100152.56;;;8.77;60.68
45275;BME280;31019;43.780;25.948;2024-01-15T09:56:45;100150.31;;;8.74;59.43
45275;BME280;31019;43.780;25.948;2024-01-15T09:59:14;100144.41;;;8.85;59.96
45275;BME280;31019;43.780;25.948;2024-01-15T10:01:43;100151.78;;;9.28;61.37
45275;BME280;31019;43.780;25.948;2024-01-15T10:04:12;100140.16;;;9.29;59.97
45275;BME280;31019;43.780;25.948;2024-01-15T10:06:44;100144.44;;;9.69;61.16
45275;BME280;31019;43.780;25.948;2024-01-15T10:09:14;100141.34;;;9.72;58.06
45275;BME280;31019;43.780;25.948;2024-01-15T10:11:41;100144.88;;;9.91;61.45
45275;BME280;31019;43.780;25.948;2024-01-15T10:14:08;100141.56;;;10.27;56.69
45275;BME280;31019;43.780;25.948;2024-01-15T10:16:38;100134.94;;;10.11;58.60
45275;BME280;31019;43.780;25.948;2024-01-15T10:19:07;100131.00;;;10.45;59.36
45275;BME280;31019;43.780;25.948;2024-01-15T10:21:37;100123.66;;;10.16;57.05
45275;BME280;31019;43.780;25.948;2024-01-15T10:24:04;100121.41;;;10.44;56.01
45275;BME280;31019;43.780;25.948;2024-01-15T10:26:32;100111.69;;;10.75;55.60
45275;BME280;31019;43.780;25.948;2024-01-15T10:28:59;100101.88;;;10.75;56.67
45275;BME280;31019;43.780;25.948;2024-01-15T10:31:27;100108.88;;;11.79;52.05
45275;BME280;31019;43.780;25.948;2024-01-15T10:33:54;100108.19;;;11.72;52.05
45275;BME280;31019;43.780;25.948;2024-01-15T10:36:22;100096.97;;;11.39;50.63
45275;BME280;31019;43.780;25.948;2024-01-15T10:38:49;100067.53;;;11.11;50.65
45275;BME280;31019;43.780;25.948;2024-01-15T10:41:16;100064.16;;;10.48;52.33
45275;BME280;31019;43.780;25.948;2024-01-15T10:43:44;100056.25;;;10.97;51.40
45275;BME280;31019;43.780;25.948;2024-01-15T10:46:11;100053.53;;;11.15;52.91
45275;BME280;31019;43.780;25.948;2024-01-15T10:48:39;100061.72;;;12.09;51.79
45275;BME280;31019;43.780;25.948;2024-01-15T10:51:06;100037.78;;;12.73;49.31
45275;BME280;31019;43.780;25.948;2024-01-15T10:53:37;100044.94;;;12.84;48.06
45275;BME280;31019;43.780;25.948;2024-01-15T10:56:07;100040.41;;;12.85;46.93
45275;BME280;31019;43.780;25.948;2024-01-15T10:58:34;100038.06;;;13.29;46.30
45275;BME280;31019;43.780;25.948;2024-01-15T11:01:04;100020.94;;;13.42;44.73
45275;BME280;31019;43.780;25.948;2024-01-15T11:03:31;100018.22;;;14.09;43.98
45275;BME280;31019;43.780;25.948;2024-01-15T11:06:01;100013.72;;;14.32;44.11
45275;BME280;31019;43.780;25.948;2024-01-15T11:08:29;100010.47;;;13.91;43.30
45275;BME280;31019;43.780;25.948;2024-01-15T11:10:56;99993.75;;;13.95;43.14
45275;BME280;31019;43.780;25.948;2024-01-15T11:13:40;99989.13;;;13.91;42.79
45275;BME280;31019;43.780;25.948;2024-01-15T11:16:10;99982.03;;;13.46;43.45
45275;BME280;31019;43.780;25.948;2024-01-15T11:18:39;99969.94;;;14.33;42.69
45275;BME280;31019;43.780;25.948;2024-01-15T11:21:25;99963.59;;;14.61;41.55
45275;BME280;31019;43.780;25.948;2024-01-15T11:23:54;99956.78;;;13.87;41.73
45275;BME280;31019;43.780;25.948;2024-01-15T11:26:30;99955.44;;;14.73;40.88
45275;BME280;31019;43.780;25.948;2024-01-15T11:28:58;99942.66;;;14.09;42.51
45275;BME280;31019;43.780;25.948;2024-01-15T11:31:28;99948.66;;;14.43;41.19
45275;BME280;31019;43.780;25.948;2024-01-15T11:33:56;99953.16;;;14.59;41.27
45275;BME280;31019;43.780;25.948;2024-01-15T11:39:41;99961.03;;;10.94;59.80
45275;BME280;31019;43.780;25.948;2024-01-15T11:42:13;99959.06;;;9.10;83.77
45275;BME280;31019;43.780;25.948;2024-01-15T11:44:41;99950.41;;;7.93;100.00
45275;BME280;31019;43.780;25.948;2024-01-15T11:47:11;99961.22;;;7.05;100.00
45275;BME280;31019;43.780;25.948;2024-01-15T11:50:00;99959.81;;;7.43;100.00
45275;BME280;31019;43.780;25.948;2024-01-15T11:52:32;99970.47;;;6.61;100.00
45275;BME280;31019;43.780;25.948;2024-01-15T11:55:02;99960.31;;;10.57;83.05
45275;BME280;31019;43.780;25.948;2024-01-15T11:57:41;99954.31;;;12.04;58.08
45275;BME280;31019;43.780;25.948;2024-01-15T12:00:09;99939.25;;;13.74;50.11
45275;BME280;31019;43.780;25.948;2024-01-15T12:02:39;99934.63;;;14.09;45.19
45275;BME280;31019;43.780;25.948;2024-01-15T12:05:09;99928.78;;;14.78;44.92
45275;BME280;31019;43.780;25.948;2024-01-15T12:07:38;99929.22;;;14.97;42.67
45275;BME280;31019;43.780;25.948;2024-01-15T12:10:12;99925.81;;;14.30;41.73
45275;BME280;31019;43.780;25.948;2024-01-15T12:12:57;99920.97;;;13.83;43.45
45275;BME280;31019;43.780;25.948;2024-01-15T12:15:24;99924.16;;;12.96;45.62
45275;BME280;31019;43.780;25.948;2024-01-15T12:17:54;99916.19;;;13.46;45.19
45275;BME280;31019;43.780;25.948;2024-01-15T12:20:23;99927.56;;;13.42;45.77
45275;BME280;31019;43.780;25.948;2024-01-15T12:22:50;99916.63;;;14.92;43.30
45275;BME280;31019;43.780;25.948;2024-01-15T12:25:17;99914.19;;;15.23;41.48
45275;BME280;31019;43.780;25.948;2024-01-15T12:27:44;99896.47;;;13.86;43.09
45275;BME280;31019;43.780;25.948;2024-01-15T12:30:12;99897.81;;;13.16;44.69
45275;BME280;31019;43.780;25.948;2024-01-15T12:32:40;99895.09;;;12.08;46.96
45275;BME280;31019;43.780;25.948;2024-01-15T12:35:12;99887.38;;;11.72;49.53
45275;BME280;31019;43.780;25.948;2024-01-15T12:37:40;99885.31;;;11.38;50.79
45275;BME280;31019;43.780;25.948;2024-01-15T12:40:09;99880.44;;;11.23;54.31
45275;BME280;31019;43.780;25.948;2024-01-15T12:42:39;99872.88;;;10.85;57.70
45275;BME280;31019;43.780;25.948;2024-01-15T12:45:08;99871.69;;;10.69;57.84